Time;durP1;ratioP1;P1;durP2;ratioP2;P2;SDS_P1;SDS_P2;PMS_P1;PMS_P2;Temp;Humidity;BMP_temperature;BMP_pressure;BME280_temperature;BME280_humidity;BME280_pressure;Samples;Min_cycle;Max_cycle;Signal;HPM_P1;HPM_P2
2022/03/08 00:01:54;;;;;;;;;51.00;38.00;;;;;5.02;41.78;101295.03;5027656;28;45567;-71
2022/03/08 00:04:20;;;;;;;;;48.25;38.75;;;;;5.15;42.05;101317.88;5032089;28;45771;-72
2022/03/08 00:06:46;;;;;;;;;43.75;36.75;;;;;5.12;41.52;101319.88;5017435;28;45534;-71
2022/03/08 00:09:11;;;;;;;;;40.25;36.00;;;;;5.09;42.58;101302.47;5025761;28;45353;-73
2022/03/08 00:11:39;;;;;;;;;49.00;38.50;;;;;5.07;42.51;101309.63;5032634;28;47957;-71
2022/03/08 00:14:04;;;;;;;;;43.00;36.50;;;;;5.07;42.20;101314.88;5025776;28;45480;-72
2022/03/08 00:16:30;;;;;;;;;49.75;40.75;;;;;4.93;42.19;101301.72;5017410;28;45231;-70
2022/03/08 00:18:55;;;;;;;;;47.50;40.75;;;;;4.93;42.83;101304.34;5020415;28;45598;-72
2022/03/08 00:21:21;;;;;;;;;46.25;39.75;;;;;4.74;42.90;101280.06;5037869;28;47813;-72
2022/03/08 00:23:47;;;;;;;;;49.50;39.25;;;;;4.91;42.85;101308.84;5031240;28;45584;-72
2022/03/08 00:26:13;;;;;;;;;46.00;39.75;;;;;4.93;42.84;101312.25;5027753;28;45365;-70
2022/03/08 00:28:38;;;;;;;;;47.50;37.75;;;;;4.70;42.66;101279.41;5033284;28;45835;-69
2022/03/08 00:31:04;;;;;;;;;44.75;38.75;;;;;4.86;42.96;101316.22;5034404;28;47267;-71
2022/03/08 00:33:29;;;;;;;;;40.75;36.50;;;;;4.75;43.28;101302.81;5036710;28;45546;-69
2022/03/08 00:35:54;;;;;;;;;45.50;38.00;;;;;4.68;43.42;101306.78;5033866;28;45516;-72
2022/03/08 00:38:21;;;;;;;;;41.25;37.75;;;;;4.68;42.72;101290.97;5016227;28;45594;-70
2022/03/08 00:40:46;;;;;;;;;47.50;38.75;;;;;4.78;43.33;101295.56;5026058;28;46194;-73
2022/03/08 00:43:12;;;;;;;;;54.25;43.25;;;;;4.64;43.05;101292.97;5032754;28;45610;-71
2022/03/08 00:45:38;;;;;;;;;44.75;38.00;;;;;4.71;43.23;101301.31;5030392;28;45477;-70
2022/03/08 00:48:05;;;;;;;;;50.50;39.00;;;;;4.72;43.37;101311.75;5017619;28;45225;-72
2022/03/08 00:50:31;;;;;;;;;50.75;39.25;;;;;4.58;43.18;101295.94;5030256;28;46278;-72
2022/03/08 00:52:59;;;;;;;;;50.75;41.25;;;;;4.17;43.51;101227.34;5026161;28;45340;-70
2022/03/08 00:55:27;;;;;;;;;53.00;41.50;;;;;4.56;43.61;101280.22;5025477;28;45531;-69
2022/03/08 00:57:53;;;;;;;;;49.25;39.00;;;;;4.16;43.52;101218.59;5025222;28;45284;-71
2022/03/08 01:00:21;;;;;;;;;43.50;36.75;;;;;4.62;43.34;101312.44;5028187;28;46119;-70
2022/03/08 01:02:47;;;;;;;;;44.00;37.75;;;;;4.56;43.94;101296.03;5024144;28;45472;-70
2022/03/08 01:05:13;;;;;;;;;49.50;37.50;;;;;4.50;43.70;101288.50;5031660;28;45565;-71
2022/03/08 01:07:45;;;;;;;;;47.50;38.00;;;;;3.65;44.07;101135.75;5033713;28;45518;-69
2022/03/08 01:10:15;;;;;;;;;43.50;38.75;;;;;4.62;43.56;101305.38;5043766;28;47410;-70
2022/03/08 01:12:42;;;;;;;;;53.25;39.00;;;;;4.62;43.30;101301.91;5026058;28;45832;-71
2022/03/08 01:15:08;;;;;;;;;38.25;35.75;;;;;4.58;43.85;101291.50;5051314;28;45538;-71
2022/03/08 01:17:34;;;;;;;;;43.50;38.50;;;;;4.63;43.38;101293.06;5032575;28;45399;-70
2022/03/08 01:20:02;;;;;;;;;43.75;39.00;;;;;4.17;43.79;101214.19;5038361;28;46614;-72
2022/03/08 01:22:27;;;;;;;;;38.50;35.50;;;;;4.66;43.56;101292.88;5027278;28;45407;-70
2022/03/08 01:24:53;;;;;;;;;48.75;39.25;;;;;4.42;43.66;101258.31;5026304;28;45635;-71
2022/03/08 01:27:18;;;;;;;;;48.00;38.75;;;;;3.92;44.23;101185.84;5031134;28;45718;-70
2022/03/08 01:29:44;;;;;;;;;50.00;41.00;;;;;4.51;43.60;101278.81;5034601;28;47670;-69
2022/03/08 01:32:09;;;;;;;;;41.50;35.50;;;;;4.58;43.99;101301.19;5024715;28;45600;-70
2022/03/08 01:34:35;;;;;;;;;45.75;38.25;;;;;4.62;43.78;101296.63;5026260;28;45863;-70
2022/03/08 01:37:02;;;;;;;;;42.25;37.75;;;;;4.63;44.34;101298.31;5028016;28;45487;-71
2022/03/08 01:39:28;;;;;;;;;56.25;41.50;;;;;4.47;44.10;101280.78;5029264;28;47564;-71
2022/03/08 01:41:53;;;;;;;;;50.00;38.25;;;;;4.51;43.81;101284.09;5034515;28;45653;-70
2022/03/08 01:44:19;;;;;;;;;41.25;36.75;;;;;4.48;43.64;101258.78;5020468;28;45586;-71
2022/03/08 01:46:45;;;;;;;;;46.00;39.75;;;;;4.07;44.27;101227.06;5039727;28;45758;-71
2022/03/08 01:49:10;;;;;;;;;50.25;41.00;;;;;4.45;43.52;101287.09;5021587;28;45787;-71
2022/03/08 01:51:37;;;;;;;;;46.75;37.25;;;;;4.47;44.54;101293.97;5027232;28;45353;-72
2022/03/08 01:54:04;;;;;;;;;48.50;39.00;;;;;4.49;43.85;101278.06;5029122;28;45508;-71
2022/03/08 01:56:29;;;;;;;;;46.25;39.50;;;;;4.41;44.27;101283.81;5045960;28;45393;-71
2022/03/08 01:58:56;;;;;;;;;53.25;42.00;;;;;4.43;44.48;101287.19;5038511;28;46084;-71
2022/03/08 02:01:22;;;;;;;;;50.00;40.00;;;;;4.28;44.18;101274.94;5034319;28;46588;-70
2022/03/08 02:03:48;;;;;;;;;40.00;36.50;;;;;4.38;44.58;101286.59;5036638;28;45306;-70
2022/03/08 02:06:13;;;;;;;;;52.00;38.75;;;;;4.29;44.26;101263.47;5030551;28;45313;-71
2022/03/08 02:08:39;;;;;;;;;51.50;42.00;;;;;4.33;44.12;101258.84;5029053;28;48116;-70
2022/03/08 02:11:04;;;;;;;;;46.75;41.25;;;;;4.51;44.66;101284.94;5034552;28;45324;-70
2022/03/08 02:13:29;;;;;;;;;41.75;37.25;;;;;4.46;44.10;101271.22;5032078;28;45443;-71
2022/03/08 02:15:55;;;;;;;;;48.25;38.00;;;;;3.96;43.64;101190.84;5030966;28;45218;-72
2022/03/08 02:18:21;;;;;;;;;51.00;40.75;;;;;3.93;44.18;101187.53;5016034;28;47160;-69
2022/03/08 02:20:47;;;;;;;;;40.75;36.00;;;;;4.33;44.61;101258.84;5023989;28;46256;-72
2022/03/08 02:23:13;;;;;;;;;53.25;42.25;;;;;4.23;44.30;101243.63;5025476;28;45421;-73
2022/03/08 02:25:38;;;;;;;;;54.00;39.75;;;;;4.30;44.62;101264.31;5018977;28;45612;-71
2022/03/08 02:28:05;;;;;;;;;46.50;39.00;;;;;4.14;44.74;101253.84;5017168;28;47329;-71
2022/03/08 02:30:31;;;;;;;;;50.75;40.75;;;;;4.07;44.76;101228.84;5026290;28;45798;-70
2022/03/08 02:32:56;;;;;;;;;38.00;34.75;;;;;4.10;45.29;101234.75;5030493;28;45443;-69
2022/03/08 02:35:30;;;;;;;;;42.25;35.50;;;;;4.26;45.02;101258.38;5037520;28;45294;-71
2022/03/08 02:37:58;;;;;;;;;42.50;38.25;;;;;4.21;44.88;101250.78;5029957;28;46286;-71
2022/03/08 02:40:28;;;;;;;;;48.50;39.75;;;;;4.04;44.62;101229.03;5035935;28;45259;-72
2022/03/08 02:42:53;;;;;;;;;52.25;40.75;;;;;4.09;45.02;101254.13;5021844;28;45607;-71
2022/03/08 02:45:19;;;;;;;;;51.25;41.50;;;;;4.06;45.45;101248.19;5029424;28;45233;-70
2022/03/08 02:47:45;;;;;;;;;42.75;34.50;;;;;4.03;45.52;101240.47;5026711;28;46704;-71
2022/03/08 02:50:13;;;;;;;;;55.25;43.25;;;;;3.50;45.30;101158.50;5031252;28;45504;-70
2022/03/08 02:52:41;;;;;;;;;57.00;43.00;;;;;3.43;45.79;101145.81;5028979;28;45309;-70
2022/03/08 02:55:08;;;;;;;;;46.75;37.25;;;;;3.92;45.45;101220.91;5018246;28;45634;-71
2022/03/08 02:57:34;;;;;;;;;47.75;39.50;;;;;3.50;45.45;101145.34;5029970;28;47362;-71
2022/03/08 03:00:00;;;;;;;;;54.50;40.25;;;;;4.01;45.74;101237.09;5028044;28;45330;-71
2022/03/08 03:02:26;;;;;;;;;55.50;43.75;;;;;3.90;46.30;101228.03;5037514;28;45467;-71
2022/03/08 03:04:52;;;;;;;;;51.75;40.75;;;;;3.87;46.48;101224.75;5034672;28;45552;-71
2022/03/08 03:07:17;;;;;;;;;54.25;43.00;;;;;3.83;46.46;101234.59;5026215;28;46887;-69
2022/03/08 03:09:43;;;;;;;;;55.00;43.25;;;;;3.79;46.05;101217.28;5039573;28;45289;-72
2022/03/08 03:12:09;;;;;;;;;55.75;42.50;;;;;3.81;46.52;101212.81;5028382;28;45245;-70
2022/03/08 03:14:34;;;;;;;;;49.50;40.00;;;;;3.81;46.18;101214.59;5023529;28;45487;-70
2022/03/08 03:17:00;;;;;;;;;48.25;40.25;;;;;3.90;46.37;101222.78;5026685;28;45729;-71
2022/03/08 03:19:25;;;;;;;;;51.75;39.75;;;;;3.93;46.43;101219.97;5028902;28;45436;-72
2022/03/08 03:21:51;;;;;;;;;44.00;38.00;;;;;3.81;46.10;101194.38;5026721;28;45796;-70
2022/03/08 03:24:16;;;;;;;;;44.00;39.25;;;;;3.68;45.91;101172.38;5017762;28;45286;-71
2022/03/08 03:26:42;;;;;;;;;50.50;41.25;;;;;3.72;46.07;101168.63;5038329;28;47655;-71
2022/03/08 03:29:08;;;;;;;;;49.25;42.50;;;;;4.02;46.38;101212.47;5020088;28;45498;-73
2022/03/08 03:31:33;;;;;;;;;49.25;42.00;;;;;4.02;45.76;101207.22;5037672;28;45544;-71
2022/03/08 03:33:58;;;;;;;;;57.75;43.50;;;;;3.92;46.10;101196.38;5031464;28;45495;-70
2022/03/08 03:36:24;;;;;;;;;54.25;43.00;;;;;3.90;46.38;101193.84;5032419;28;47902;-71
2022/03/08 03:38:49;;;;;;;;;54.75;41.25;;;;;4.02;46.45;101209.84;5024960;28;45481;-70
2022/03/08 03:41:15;;;;;;;;;55.00;41.00;;;;;4.04;46.38;101200.06;5016940;28;45738;-70
2022/03/08 03:43:40;;;;;;;;;52.75;40.50;;;;;4.04;46.14;101200.06;5028539;28;45546;-70
2022/03/08 03:46:06;;;;;;;;;51.25;41.50;;;;;3.80;45.95;101169.00;5023109;28;45529;-71
2022/03/08 03:48:32;;;;;;;;;42.00;38.25;;;;;3.75;46.07;101142.13;5037730;28;45372;-72
2022/03/08 03:50:58;;;;;;;;;46.75;39.00;;;;;3.97;46.10;101173.25;5029322;28;45244;-71
2022/03/08 03:53:23;;;;;;;;;48.75;40.50;;;;;3.82;46.02;101169.78;5036925;28;45209;-70
2022/03/08 03:55:49;;;;;;;;;37.25;34.75;;;;;3.96;45.63;101198.72;5028405;28;45395;-71
2022/03/08 03:58:14;;;;;;;;;47.67;38.00;;;;;3.60;46.34;101157.06;5033012;28;45315;-71
2022/03/08 04:00:40;;;;;;;;;50.25;41.75;;;;;3.31;46.07;101113.19;5035521;28;45253;-71
2022/03/08 04:03:05;;;;;;;;;49.50;40.50;;;;;3.90;45.67;101198.25;5025865;28;45357;-71
2022/03/08 04:05:31;;;;;;;;;57.50;45.50;;;;;3.78;46.31;101201.59;5024262;28;46673;-72
2022/03/08 04:07:56;;;;;;;;;40.00;36.75;;;;;3.75;46.51;101204.41;5018604;28;45486;-71
2022/03/08 04:10:21;;;;;;;;;45.25;40.50;;;;;3.74;46.22;101207.97;5016583;28;45458;-70
2022/03/08 04:12:47;;;;;;;;;55.25;42.25;;;;;3.68;46.81;101209.19;5028344;28;45448;-70
2022/03/08 04:15:13;;;;;;;;;31.75;24.75;;;;;3.70;46.20;101199.41;5033128;28;46809;-70
2022/03/08 04:17:38;;;;;;;;;46.25;40.75;;;;;3.75;46.33;101209.66;5023029;28;45401;-71
2022/03/08 04:20:06;;;;;;;;;45.00;40.50;;;;;3.62;47.18;101194.63;5031712;28;45482;-71
2022/03/08 04:22:31;;;;;;;;;46.75;40.25;;;;;3.75;46.54;101207.03;5028709;28;45379;-70
2022/03/08 04:24:57;;;;;;;;;52.50;39.50;;;;;3.63;46.55;101179.69;5035393;28;47933;-69
2022/03/08 04:27:22;;;;;;;;;43.00;38.50;;;;;3.92;46.21;101205.13;5015707;28;45426;-69
2022/03/08 04:29:48;;;;;;;;;42.25;36.25;;;;;3.87;46.32;101199.28;5031693;28;45432;-69
2022/03/08 04:32:13;;;;;;;;;43.75;38.00;;;;;3.85;46.64;101201.16;5028642;28;45364;-70
2022/03/08 04:34:39;;;;;;;;;52.25;42.25;;;;;3.81;46.59;101198.81;5033371;28;46149;-71
2022/03/08 04:37:04;;;;;;;;;47.25;38.50;;;;;3.77;46.56;101182.34;5023939;28;46141;-71
2022/03/08 04:39:29;;;;;;;;;42.50;37.00;;;;;3.81;46.07;101170.72;5017230;28;45321;-70
2022/03/08 04:41:55;;;;;;;;;46.50;38.75;;;;;4.00;45.91;101198.53;5023806;28;45309;-71
2022/03/08 04:44:20;;;;;;;;;46.75;40.25;;;;;3.89;45.75;101160.59;5037377;28;47173;-70
2022/03/08 04:46:46;;;;;;;;;41.50;34.75;;;;;4.01;46.01;101187.13;5028218;28;45511;-71
2022/03/08 04:49:11;;;;;;;;;53.00;42.25;;;;;4.04;45.91;101195.66;5031506;28;45525;-70
2022/03/08 04:51:37;;;;;;;;;49.50;39.50;;;;;3.88;46.10;101166.78;5033364;28;45290;-71
2022/03/08 04:54:02;;;;;;;;;40.00;33.00;;;;;3.06;45.48;101024.44;5027491;28;45445;-69
2022/03/08 04:56:28;;;;;;;;;50.50;40.50;;;;;3.98;45.77;101178.44;5018458;28;45983;-71
2022/03/08 04:58:53;;;;;;;;;42.25;37.00;;;;;4.01;45.72;101172.16;5023777;28;45452;-71
2022/03/08 05:01:19;;;;;;;;;49.75;43.75;;;;;3.87;46.37;101178.25;5024912;28;45563;-70
2022/03/08 05:03:44;;;;;;;;;41.75;35.50;;;;;3.91;46.24;101179.75;5016356;28;46344;-72
2022/03/08 05:06:09;;;;;;;;;50.75;40.50;;;;;4.01;45.33;101180.06;5019285;28;45532;-71
2022/03/08 05:08:35;;;;;;;;;51.25;43.50;;;;;3.41;46.13;101085.44;5034331;28;45584;-71
2022/03/08 05:11:01;;;;;;;;;54.00;43.00;;;;;3.75;46.61;101151.81;5026641;28;45373;-71
2022/03/08 05:13:30;;;;;;;;;55.00;44.25;;;;;3.13;46.78;101066.97;5021859;28;45842;-71
2022/03/08 05:15:55;;;;;;;;;51.00;38.75;;;;;3.66;47.25;101154.06;5026958;28;45267;-70
2022/03/08 05:18:20;;;;;;;;;55.00;42.00;;;;;3.87;46.68;101188.75;5024773;28;45207;-71
2022/03/08 05:20:46;;;;;;;;;40.25;34.50;;;;;3.81;46.54;101170.72;5017113;28;45470;-70
2022/03/08 05:23:11;;;;;;;;;51.00;42.00;;;;;3.75;46.80;101154.44;5017685;28;46334;-72
2022/03/08 05:25:37;;;;;;;;;50.75;42.75;;;;;3.93;46.74;101183.13;5034197;28;45564;-71
2022/03/08 05:28:02;;;;;;;;;58.00;43.25;;;;;3.88;46.65;101169.41;5016418;28;45584;-70
2022/03/08 05:30:28;;;;;;;;;52.75;43.25;;;;;3.89;46.83;101178.16;5023952;28;45473;-71
2022/03/08 05:32:53;;;;;;;;;57.00;41.75;;;;;3.80;47.12;101183.94;5024104;28;46142;-71
2022/03/08 05:35:19;;;;;;;;;49.50;41.25;;;;;3.66;47.11;101150.56;5030930;28;45462;-69
2022/03/08 05:37:44;;;;;;;;;54.50;42.50;;;;;3.71;47.16;101160.81;5025980;28;45663;-70
2022/03/08 05:40:10;;;;;;;;;55.00;44.75;;;;;3.70;47.58;101180.16;5021919;28;45457;-71
2022/03/08 05:42:38;;;;;;;;;50.50;42.50;;;;;3.62;47.24;101154.31;5014292;28;48149;-70
2022/03/08 05:45:08;;;;;;;;;52.75;42.50;;;;;3.58;47.34;101171.19;5016683;28;45245;-70
2022/03/08 05:47:35;;;;;;;;;56.00;45.75;;;;;3.50;47.43;101182.16;5032040;28;45403;-72
2022/03/08 05:50:01;;;;;;;;;54.25;42.25;;;;;3.45;47.51;101181.59;5018619;28;45605;-72
2022/03/08 05:52:29;;;;;;;;;37.00;35.50;;;;;3.31;47.56;101161.34;5043405;28;48219;-69
2022/03/08 05:54:55;;;;;;;;;42.25;28.50;;;;;3.22;48.02;101169.75;5038606;28;46433;-71
2022/03/08 05:57:20;;;;;;;;;52.75;43.75;;;;;3.31;48.00;101171.84;5021464;28;45146;-69
2022/03/08 05:59:49;;;;;;;;;43.75;36.50;;;;;3.27;48.30;101151.94;5033744;28;45442;-71
2022/03/08 06:02:18;;;;;;;;;51.00;39.75;;;;;3.21;47.85;101162.81;5030071;28;46919;-70
2022/03/08 06:04:44;;;;;;;;;53.00;41.25;;;;;3.16;48.50;101169.22;5033730;28;45601;-70
2022/03/08 06:07:09;;;;;;;;;54.25;43.00;;;;;3.13;48.71;101180.75;5030883;28;45608;-69
2022/03/08 06:09:35;;;;;;;;;48.50;41.50;;;;;3.03;48.69;101169.09;5027914;28;45592;-70
2022/03/08 06:12:03;;;;;;;;;47.25;40.50;;;;;3.00;48.90;101159.59;5018808;28;45391;-71
2022/03/08 06:14:29;;;;;;;;;55.75;44.00;;;;;3.15;48.42;101188.56;5036099;28;45361;-72
2022/03/08 06:16:55;;;;;;;;;57.75;47.75;;;;;3.08;47.98;101167.03;5037033;28;45483;-71
2022/03/08 06:19:20;;;;;;;;;54.50;42.50;;;;;2.58;48.65;101083.19;5028914;28;45396;-72
2022/03/08 06:21:45;;;;;;;;;48.50;37.50;;;;;3.12;48.34;101178.22;5030335;28;46502;-73
2022/03/08 06:24:12;;;;;;;;;51.50;42.00;;;;;3.14;48.36;101177.19;5030486;28;45512;-71
2022/03/08 06:26:38;;;;;;;;;46.75;39.75;;;;;3.03;48.35;101163.84;5025106;28;45497;-74
2022/03/08 06:29:04;;;;;;;;;53.25;43.50;;;;;2.94;48.38;101159.06;5026612;28;45625;-71
2022/03/08 06:31:29;;;;;;;;;54.50;42.25;;;;;2.97;48.06;101169.41;5034234;28;45661;-71
2022/03/08 06:33:55;;;;;;;;;45.75;39.50;;;;;2.51;48.20;101095.81;5038485;28;45443;-73
2022/03/08 06:36:20;;;;;;;;;57.50;47.00;;;;;3.03;48.69;101187.47;5030509;28;45521;-71
2022/03/08 06:38:46;;;;;;;;;51.50;43.25;;;;;3.26;48.70;101201.97;5033483;28;45518;-73
2022/03/08 06:41:11;;;;;;;;;51.50;42.25;;;;;3.03;48.58;101161.22;5027679;28;48947;-72
2022/03/08 06:43:39;;;;;;;;;47.25;40.50;;;;;3.26;48.25;101200.19;5042361;28;45458;-71
2022/03/08 06:46:04;;;;;;;;;52.75;40.50;;;;;3.26;47.67;101202.81;5031686;28;45337;-71
2022/03/08 06:48:30;;;;;;;;;40.25;37.50;;;;;3.24;48.32;101203.81;5025467;28;45594;-70
2022/03/08 06:50:55;;;;;;;;;55.50;43.25;;;;;3.11;48.63;101171.28;5017154;28;48026;-74
2022/03/08 06:53:21;;;;;;;;;59.50;44.50;;;;;3.12;48.33;101176.44;5026207;28;45779;-68
2022/03/08 06:55:46;;;;;;;;;55.50;45.25;;;;;3.10;48.03;101165.19;5030947;28;45414;-71
2022/03/08 06:58:11;;;;;;;;;55.25;41.00;;;;;3.27;48.52;101193.97;5036290;28;45377;-69
2022/03/08 07:00:37;;;;;;;;;52.50;41.00;;;;;3.33;48.40;101188.38;5028594;28;45610;-71
2022/03/08 07:03:03;;;;;;;;;59.75;46.75;;;;;3.22;48.33;101179.41;5034408;28;45631;-68
2022/03/08 07:05:28;;;;;;;;;58.75;45.75;;;;;3.31;48.08;101195.50;5023989;28;45491;-68
2022/03/08 07:07:54;;;;;;;;;49.00;36.00;;;;;2.96;48.51;101125.69;5030376;28;45576;-68
2022/03/08 07:10:19;;;;;;;;;54.50;41.75;;;;;3.30;48.14;101172.78;5021656;28;46512;-69
2022/03/08 07:12:45;;;;;;;;;53.75;44.50;;;;;3.46;48.54;101200.84;5024035;28;45375;-70
2022/03/08 07:15:11;;;;;;;;;49.25;43.25;;;;;2.98;48.03;101100.19;5031994;28;45416;-68
2022/03/08 07:17:36;;;;;;;;;45.00;40.00;;;;;3.30;48.28;101141.25;5046124;28;45611;-70
2022/03/08 07:20:08;;;;;;;;;58.00;47.25;;;;;3.51;47.80;101173.34;5032550;28;47101;-78
2022/03/08 07:22:33;;;;;;;;;56.25;45.50;;;;;3.25;47.67;101145.94;5026786;28;45298;-72
2022/03/08 07:24:59;;;;;;;;;54.00;43.00;;;;;3.40;48.08;101172.25;5023515;28;45593;-73
2022/03/08 07:27:24;;;;;;;;;60.75;49.00;;;;;3.50;47.85;101162.91;5037205;28;45638;-68
2022/03/08 07:29:50;;;;;;;;;55.00;44.75;;;;;3.78;47.77;101214.75;5020595;28;46144;-69
2022/03/08 07:32:15;;;;;;;;;55.75;45.75;;;;;3.67;47.51;101183.81;5025794;28;45201;-69
2022/03/08 07:34:41;;;;;;;;;57.00;48.75;;;;;3.53;47.86;101162.72;5031613;28;45340;-68
2022/03/08 07:37:07;;;;;;;;;55.25;41.50;;;;;4.23;47.01;101163.84;5035512;28;45510;-69
2022/03/08 07:39:33;;;;;;;;;54.75;45.25;;;;;5.09;44.60;101110.06;5032266;28;47379;-68
2022/03/08 07:41:58;;;;;;;;;40.75;32.75;;;;;6.63;41.31;101218.41;5023659;28;45441;-67
2022/03/08 07:44:24;;;;;;;;;51.25;42.00;;;;;7.00;39.81;101166.41;5026796;28;45515;-69
2022/03/08 07:46:49;;;;;;;;;60.25;46.75;;;;;7.16;38.88;101138.88;5030936;28;45393;-70
2022/03/08 07:49:14;;;;;;;;;54.50;45.75;;;;;7.72;39.12;101173.50;5029250;28;46366;-70
2022/03/08 07:51:40;;;;;;;;;55.00;43.75;;;;;8.17;37.47;101183.25;5024184;28;45570;-70
2022/03/08 07:54:06;;;;;;;;;54.25;44.75;;;;;8.67;37.04;101181.16;5027026;28;46303;-69
2022/03/08 07:56:31;;;;;;;;;52.00;43.00;;;;;9.60;35.78;101201.94;5021449;28;45702;-77
2022/03/08 07:59:00;;;;;;;;;54.25;43.75;;;;;9.91;33.88;101179.00;5028031;28;46451;-72
2022/03/08 08:01:28;;;;;;;;;50.50;43.00;;;;;10.73;33.49;101189.69;5033234;28;45549;-72
2022/03/08 08:03:54;;;;;;;;;52.50;43.00;;;;;11.99;31.64;101204.88;5020370;28;45639;-75
2022/03/08 08:06:19;;;;;;;;;47.75;40.00;;;;;12.37;29.94;101216.47;5033524;28;45519;-72
2022/03/08 08:08:45;;;;;;;;;54.75;43.25;;;;;12.02;29.79;101201.97;5023569;28;48377;-72
2022/03/08 08:11:16;;;;;;;;;51.50;42.50;;;;;11.59;30.39;101211.16;5028581;28;45423;-72
2022/03/08 08:13:42;;;;;;;;;57.25;44.75;;;;;10.70;31.57;101136.78;5024902;28;45459;-72
2022/03/08 08:16:07;;;;;;;;;51.75;42.50;;;;;11.16;31.68;101230.16;5026212;28;45520;-72
2022/03/08 08:18:32;;;;;;;;;55.25;45.00;;;;;11.26;31.91;101231.03;5026524;28;46826;-71
2022/03/08 08:20:59;;;;;;;;;54.50;43.00;;;;;11.63;31.47;101219.75;5029615;28;45530;-72
2022/03/08 08:23:24;;;;;;;;;50.25;41.00;;;;;12.02;30.87;101201.13;5022586;28;45401;-72
2022/03/08 08:25:50;;;;;;;;;53.00;42.00;;;;;12.24;29.79;101134.16;5032604;28;45573;-71
2022/03/08 08:28:19;;;;;;;;;57.75;45.25;;;;;13.13;28.66;101219.81;5014695;28;47548;-71
2022/03/08 08:30:44;;;;;;;;;49.00;41.00;;;;;13.17;28.41;101199.84;5024713;28;45562;-73
2022/03/08 08:33:10;;;;;;;;;51.75;43.50;;;;;13.65;28.29;101210.25;5031591;28;45558;-71
2022/03/08 08:35:35;;;;;;;;;55.50;45.00;;;;;13.19;27.58;101202.41;5016299;28;45525;-71
2022/03/08 08:38:01;;;;;;;;;55.00;44.00;;;;;12.75;28.57;101205.69;5026105;28;46176;-70
2022/03/08 08:40:26;;;;;;;;;48.75;41.50;;;;;12.47;29.53;101222.63;5019814;28;45318;-71
2022/03/08 08:42:51;;;;;;;;;55.00;44.25;;;;;12.01;30.05;101207.41;5025692;28;45303;-74
2022/03/08 08:45:17;;;;;;;;;52.75;42.75;;;;;11.94;30.13;101233.78;5024620;28;45510;-69
2022/03/08 08:47:42;;;;;;;;;52.25;43.75;;;;;11.69;30.75;101211.19;5023877;28;46639;-71
2022/03/08 08:50:08;;;;;;;;;55.00;44.25;;;;;12.01;30.98;101228.72;5023490;28;45487;-71
2022/03/08 08:52:34;;;;;;;;;56.00;45.25;;;;;12.17;30.72;101231.66;5020049;28;45557;-71
2022/03/08 08:54:59;;;;;;;;;57.00;44.50;;;;;12.17;30.57;101226.31;5024898;28;45594;-71
2022/03/08 08:57:25;;;;;;;;;53.00;42.25;;;;;12.05;30.33;101212.34;5030677;28;45493;-71
2022/03/08 08:59:50;;;;;;;;;52.25;41.50;;;;;12.03;30.30;101218.78;5019582;28;45646;-72
2022/03/08 09:02:15;;;;;;;;;50.50;43.00;;;;;11.48;30.82;101150.06;5031140;28;45492;-72
2022/03/08 09:04:41;;;;;;;;;55.00;45.00;;;;;11.76;30.61;101212.31;5025045;28;45448;-70
2022/03/08 09:07:06;;;;;;;;;55.00;43.50;;;;;11.52;30.61;101193.22;5016101;28;46419;-73
2022/03/08 09:09:32;;;;;;;;;52.00;42.75;;;;;12.01;30.80;101191.41;5024228;28;45506;-71
2022/03/08 09:11:57;;;;;;;;;54.25;44.75;;;;;12.43;30.53;101211.41;5032573;28;45528;-70
2022/03/08 09:14:23;;;;;;;;;47.50;38.75;;;;;12.40;30.72;101205.50;5023768;28;45597;-69
2022/03/08 09:16:48;;;;;;;;;51.75;42.00;;;;;12.00;30.26;101128.44;5020657;28;46455;-71
2022/03/08 09:19:14;;;;;;;;;56.75;45.75;;;;;12.67;30.41;101215.41;5030338;28;45637;-69
2022/03/08 09:21:39;;;;;;;;;53.00;41.75;;;;;12.70;30.17;101201.78;5021820;28;45537;-74
2022/03/08 09:24:05;;;;;;;;;54.75;42.50;;;;;12.53;29.98;101186.53;5033943;28;45330;-70
2022/03/08 09:26:31;;;;;;;;;52.75;44.00;;;;;12.76;30.28;101212.69;5023872;28;46329;-71
2022/03/08 09:28:56;;;;;;;;;52.75;42.75;;;;;12.87;30.12;101218.84;5037945;28;45216;-73
2022/03/08 09:31:22;;;;;;;;;53.25;44.00;;;;;12.85;30.20;101210.16;5035067;28;45474;-72
2022/03/08 09:33:48;;;;;;;;;57.00;46.75;;;;;12.23;30.15;101195.63;5026585;28;45542;-72
2022/03/08 09:36:13;;;;;;;;;53.50;45.00;;;;;11.49;30.64;101135.78;5030918;28;45450;-69
2022/03/08 09:38:39;;;;;;;;;57.75;45.75;;;;;11.68;31.73;101206.00;5033670;28;45457;-72
2022/03/08 09:41:05;;;;;;;;;52.75;44.00;;;;;11.72;31.50;101210.06;5035197;28;45483;-76
2022/03/08 09:43:34;;;;;;;;;59.25;47.00;;;;;11.62;31.52;101210.06;5034499;28;45594;-72
2022/03/08 09:45:59;;;;;;;;;52.75;41.25;;;;;11.23;32.04;101164.78;5029176;28;45597;-72
2022/03/08 09:48:24;;;;;;;;;58.75;45.75;;;;;11.50;32.47;101195.19;5036550;28;45625;-70
2022/03/08 09:50:50;;;;;;;;;57.50;46.50;;;;;11.57;31.92;101201.63;5034204;28;45516;-72
2022/03/08 09:53:15;;;;;;;;;57.00;43.75;;;;;11.45;32.10;101190.28;5031358;28;45358;-70
2022/03/08 09:55:41;;;;;;;;;57.75;45.50;;;;;11.62;32.08;101182.59;5035668;28;46527;-72
2022/03/08 09:58:06;;;;;;;;;51.25;42.00;;;;;11.28;32.00;101069.38;5039198;28;45456;-70
2022/03/08 10:00:32;;;;;;;;;58.75;44.75;;;;;12.29;31.12;101200.38;5032908;28;45510;-72
2022/03/08 10:03:00;;;;;;;;;52.00;42.50;;;;;12.10;31.25;101185.25;5031854;28;45534;-72
2022/03/08 10:05:43;;;;;;;;;58.50;47.25;;;;;12.03;31.33;101205.47;5023658;28;45630;-71
2022/03/08 10:08:21;;;;;;;;;53.25;44.00;;;;;11.96;31.96;101201.66;5021137;28;45573;-69
2022/03/08 10:10:55;;;;;;;;;54.25;45.00;;;;;11.76;32.42;101190.16;5028933;28;45460;-72
2022/03/08 10:13:27;;;;;;;;;57.25;44.75;;;;;11.39;32.67;101163.38;5027856;28;45531;-71
2022/03/08 10:16:06;;;;;;;;;57.50;47.00;;;;;11.41;32.73;101190.69;5041499;28;46756;-71
2022/03/08 10:18:45;;;;;;;;;54.75;44.25;;;;;11.07;33.43;101166.28;5026537;28;45639;-72
2022/03/08 10:21:34;;;;;;;;;58.75;46.25;;;;;11.20;33.26;101196.97;5031093;28;45482;-70
2022/03/08 10:24:00;;;;;;;;;58.00;46.50;;;;;10.97;33.97;101166.25;5030358;28;45444;-69
2022/03/08 10:26:26;;;;;;;;;57.00;46.00;;;;;11.16;33.72;101181.41;5034465;28;47934;-72
2022/03/08 10:29:00;;;;;;;;;60.00;46.25;;;;;11.03;33.72;101187.00;5032859;28;45415;-74
2022/03/08 10:31:26;;;;;;;;;53.00;44.25;;;;;10.71;33.99;101170.38;5027852;28;46107;-72
2022/03/08 10:33:52;;;;;;;;;58.00;46.25;;;;;10.55;34.80;101179.66;5025486;28;45618;-74
2022/03/08 10:36:22;;;;;;;;;45.75;34.25;;;;;10.33;35.17;101172.72;5029436;28;46540;-82
2022/03/08 10:39:13;;;;;;;;;57.25;46.00;;;;;10.18;35.58;101181.97;5034266;28;45654;-76
2022/03/08 10:41:47;;;;;;;;;57.00;43.75;;;;;10.07;35.92;101179.38;5034061;28;45485;-71
2022/03/08 10:44:12;;;;;;;;;57.00;46.00;;;;;9.94;35.81;101184.88;5027701;28;45450;-71
2022/03/08 10:46:38;;;;;;;;;58.25;47.25;;;;;9.65;36.60;101147.50;5019069;28;46157;-74
2022/03/08 10:49:12;;;;;;;;;59.00;46.75;;;;;9.72;36.63;101177.88;5026983;28;46076;-73
2022/03/08 10:51:43;;;;;;;;;57.25;47.25;;;;;9.72;37.02;101182.34;5018558;28;45482;-73
2022/03/08 10:54:13;;;;;;;;;60.75;49.00;;;;;9.01;37.04;101082.97;5031806;28;45321;-73
2022/03/08 10:56:45;;;;;;;;;63.50;48.75;;;;;9.35;37.45;101155.34;5026671;28;47350;-71
2022/03/08 10:59:14;;;;;;;;;66.00;49.50;;;;;9.47;37.32;101170.28;5037623;28;45404;-73
2022/03/08 11:01:40;;;;;;;;;58.25;45.50;;;;;9.46;37.47;101171.25;5033690;28;45438;-72
2022/03/08 11:04:16;;;;;;;;;61.00;49.50;;;;;9.45;37.74;101154.47;5030767;28;45954;-73
2022/03/08 11:06:42;;;;;;;;;61.00;47.00;;;;;9.43;37.84;101159.06;5024870;28;48768;-71
2022/03/08 11:09:08;;;;;;;;;65.25;49.75;;;;;9.18;37.86;101114.28;5048389;28;45772;-71
2022/03/08 11:11:34;;;;;;;;;62.50;48.00;;;;;9.35;38.09;101120.84;5019273;28;45387;-71